Vg 117 Kungsvik — SBTH — position and weather

sailwx.info

Track history (hours):
 
Tides and Currents Weather Stations Pressure Air Temp Water Temp Dewpoint Dewpoint Depression Visibility Wind Speed Wind Dir Waves Ship Positions

Vg 117 Kungsvik

Last reported at 2014-Oct-02 05:33 UTC. Time now 2014-Oct-02 06:21 UTC.
Position N 56°52' E 012°16'.

Length 17 m.

Type: Fishing. MMSI: 266137000.

Date/timePositionNaut miles runAvg speedWind from/ knotsBaromVisibWave heightAir tempDewpointWater temp
2014-Oct-02 05:33N 56°52' E 012°16'3 2.5
2014-Oct-02 04:32N 56°55' E 012°15'4 3.7
2014-Oct-02 03:33N 56°58' E 012°14'5 0.5
2014-Oct-01 17:32N 57°03' E 012°15'8 7.9
2014-Oct-01 16:33N 56°55' E 012°15'3 2.6
2014-Oct-01 15:31N 56°52' E 012°15'2 2.6
2014-Oct-01 14:33N 56°50' E 012°17'3 2.6
2014-Oct-01 13:33N 56°48' E 012°18'3 2.6
2014-Oct-01 12:33N 56°45' E 012°19'1 1.0
2014-Oct-01 11:33N 56°46' E 012°18'3 2.6
2014-Oct-01 10:33N 56°48' E 012°17'0 0.2
2014-Oct-01 09:23N 56°49' E 012°17'2 2.6
2014-Oct-01 08:33N 56°47' E 012°18'1 0.6
2014-Oct-01 07:33N 56°46' E 012°17'3 2.6
2014-Oct-01 06:33N 56°49' E 012°17'2 2.5
2014-Oct-01 05:33N 56°51' E 012°16'2 2.4
2014-Oct-01 04:33N 56°54' E 012°15'4 4.5
2014-Oct-01 03:33N 56°58' E 012°15'5 0.5
2014-Sep-30 17:33N 57°03' E 012°15'8 8.1
2014-Sep-30 16:31N 56°54' E 012°15'2 2.3
2014-Sep-30 15:33N 56°52' E 012°15'3 2.6
2014-Sep-30 14:33N 56°50' E 012°17'3 2.6
2014-Sep-30 13:33N 56°47' E 012°17'3 2.7
2014-Sep-30 12:33N 56°44' E 012°18'1 1.1
2014-Sep-30 11:33N 56°44' E 012°19'3 2.7
2014-Sep-30 10:32N 56°47' E 012°18'1 1.2
2014-Sep-30 09:32N 56°48' E 012°17'3 2.6
2014-Sep-30 08:33N 56°45' E 012°19'1 1.1
2014-Sep-30 07:33N 56°45' E 012°17'3 2.6
2014-Sep-30 06:28N 56°48' E 012°16'2 2.6
2014-Sep-30 05:33N 56°50' E 012°16'3 2.6
2014-Sep-30 04:33N 56°53' E 012°15'6 5.6
2014-Sep-30 03:32N 56°58' E 012°14'6 5.1
2014-Sep-30 02:27N 57°04' E 012°16'0 0.0
2014-Sep-30 01:15N 57°04' E 012°16'0 0.0
2014-Sep-30 00:33N 57°04' E 012°16'0 0.0
2014-Sep-29 23:15N 57°04' E 012°16'0 0.0
2014-Sep-29 22:33N 57°04' E 012°16'0 0.0
2014-Sep-29 21:27N 57°04' E 012°16'0 0.0
2014-Sep-29 19:21N 57°04' E 012°16'0 0.0
2014-Sep-29 18:09N 57°04' E 012°16'3 4.5
2014-Sep-29 17:29N 57°01' E 012°14'8 8.1
2014-Sep-29 16:33N 56°53' E 012°10'1 0.8
2014-Sep-29 15:34N 56°53' E 012°11'2 2.0
2014-Sep-29 14:34N 56°52' E 012°14'3 2.5
2014-Sep-29 13:33N 56°50' E 012°15'3 2.6
2014-Sep-29 12:33N 56°47' E 012°13'2 2.0
2014-Sep-29 11:32N 56°45' E 012°14'2 2.5
2014-Sep-29 10:33N 56°48' E 012°15'1 1.1
2014-Sep-29 09:33N 56°49' E 012°15'2 2.4
2014-Sep-29 08:31N 56°47' E 012°17'2 2.3
2014-Sep-29 07:33N 56°44' E 012°17'3 2.5
2014-Sep-29 06:33N 56°47' E 012°16'3 2.6
2014-Sep-29 05:32N 56°49' E 012°16'3 2.6
2014-Sep-29 04:33N 56°52' E 012°15'6 6.3
2014-Sep-29 03:33N 56°58' E 012°14'5 5.2
2014-Sep-29 02:31N 57°04' E 012°16'0 0.0
2014-Sep-29 01:31N 57°04' E 012°16'0 0.0
2014-Sep-29 00:25N 57°04' E 012°16'0 0.0
2014-Sep-28 23:31N 57°04' E 012°16'0 0.0
2014-Sep-28 22:25N 57°04' E 012°16'0 0.0
2014-Sep-28 21:31N 57°04' E 012°16'0 0.0
2014-Sep-28 20:31N 57°04' E 012°16'0 0.0
2014-Sep-28 19:19N 57°04' E 012°16'0 0.0
2014-Sep-28 18:19N 57°04' E 012°16'0 0.0
2014-Sep-28 17:19N 57°04' E 012°16'0 0.0
2014-Sep-28 16:31N 57°04' E 012°16'0 0.0
2014-Sep-28 15:31N 57°04' E 012°16'0 0.0
2014-Sep-28 14:31N 57°04' E 012°16'0 0.0
2014-Sep-28 13:25N 57°04' E 012°16'0 0.0
2014-Sep-28 12:25N 57°04' E 012°16'0 0.0
2014-Sep-28 11:19N 57°04' E 012°16'0 0.0
2014-Sep-28 10:31N 57°04' E 012°16'0 0.0
2014-Sep-28 08:07N 57°04' E 012°16'0 0.0
2014-Sep-28 07:31N 57°04' E 012°16'0 0.0
2014-Sep-28 05:31N 57°04' E 012°16'0 0.0
2014-Sep-28 04:13N 57°04' E 012°16'0 0.0
2014-Sep-28 03:31N 57°04' E 012°16'0 0.0
2014-Sep-28 02:25N 57°04' E 012°16'0 0.0
2014-Sep-28 01:25N 57°04' E 012°16'0 0.0
2014-Sep-28 00:31N 57°04' E 012°16'0 0.0
2014-Sep-27 23:13N 57°04' E 012°16'0 0.0
2014-Sep-27 22:31N 57°04' E 012°16'0 0.0
2014-Sep-27 13:31N 57°04' E 012°16'0 0.0
2014-Sep-27 12:25N 57°04' E 012°16'0 0.0
2014-Sep-27 11:31N 57°04' E 012°16'0 0.0
2014-Sep-27 10:31N 57°04' E 012°16'0 0.0
2014-Sep-27 09:31N 57°04' E 012°16'0 0.0
2014-Sep-27 07:13N 57°04' E 012°16'0 0.0
2014-Sep-27 06:31N 57°04' E 012°16'0 0.0
2014-Sep-27 05:31N 57°04' E 012°16'0 0.0
2014-Sep-27 04:31N 57°04' E 012°16'0 0.0
2014-Sep-27 03:25N 57°04' E 012°16'0 0.0
2014-Sep-27 02:31N 57°04' E 012°16'0 0.0
2014-Sep-27 01:31N 57°04' E 012°16'0 0.0
2014-Sep-27 00:31N 57°04' E 012°16'0 0.0
2014-Sep-26 23:13N 57°04' E 012°16'0 0.0
2014-Sep-26 22:31N 57°04' E 012°16'0 0.0
2014-Sep-26 21:07N 57°04' E 012°16'0 0.0
2014-Sep-26 20:25N 57°04' E 012°16'0 0.0
2014-Sep-26 19:25N 57°04' E 012°16'0 0.0
2014-Sep-26 18:31N 57°04' E 012°16'0 0.0
2014-Sep-26 17:07N 57°04' E 012°16'0 0.0
2014-Sep-26 15:31N 57°04' E 012°16'0 0.0
2014-Sep-26 14:19N 57°04' E 012°16'0 0.0
2014-Sep-26 13:31N 57°04' E 012°16'0 0.0
2014-Sep-26 12:31N 57°04' E 012°16'0 0.0
2014-Sep-26 10:25N 57°04' E 012°16'0 0.0
2014-Sep-26 09:19N 57°04' E 012°16'0 0.0
2014-Sep-26 08:19N 57°04' E 012°16'0 0.0
2014-Sep-26 07:31N 57°04' E 012°16'0 0.0
2014-Sep-26 06:31N 57°04' E 012°16'0 0.0
2014-Sep-26 05:31N 57°04' E 012°16'0 0.0
2014-Sep-26 04:31N 57°04' E 012°16'0 0.0
2014-Sep-26 03:31N 57°04' E 012°16'0 0.0
2014-Sep-26 01:25N 57°04' E 012°16'0 0.0
2014-Sep-26 00:31N 57°04' E 012°16'0 0.0
2014-Sep-25 23:19N 57°04' E 012°16'0 0.0
2014-Sep-25 22:25N 57°04' E 012°16'0 0.0
2014-Sep-25 21:19N 57°04' E 012°16'0 0.0
2014-Sep-25 20:31N 57°04' E 012°16'0 0.0
2014-Sep-25 18:31N 57°04' E 012°16'0 0.0
2014-Sep-25 17:19N 57°04' E 012°16'0 0.0
2014-Sep-25 16:31N 57°04' E 012°16'0 0.0
2014-Sep-25 15:31N 57°04' E 012°16'0 0.0
2014-Sep-25 14:13N 57°04' E 012°16'0 0.0
2014-Sep-25 13:19N 57°04' E 012°16'0 0.0
2014-Sep-25 12:31N 57°04' E 012°16'0 0.0
2014-Sep-25 11:25N 57°04' E 012°16'0 0.0
2014-Sep-25 10:31N 57°04' E 012°16'0 0.0
2014-Sep-25 09:25N 57°04' E 012°16'0 0.0
2014-Sep-25 08:31N 57°04' E 012°16'0 0.0
2014-Sep-25 07:19N 57°04' E 012°16'0 0.0
2014-Sep-25 06:31N 57°04' E 012°16'0 0.0
2014-Sep-25 05:31N 57°04' E 012°16'0 0.0
2014-Sep-25 04:25N 57°04' E 012°16'0 0.0
2014-Sep-25 03:31N 57°04' E 012°16'0 0.0
2014-Sep-25 02:31N 57°04' E 012°16'0 0.0
2014-Sep-25 01:19N 57°04' E 012°16'0 0.0
2014-Sep-25 00:31N 57°04' E 012°16'0 0.0
2014-Sep-24 23:31N 57°04' E 012°16'0 0.0
2014-Sep-24 22:25N 57°04' E 012°16'0 0.0
2014-Sep-24 21:31N 57°04' E 012°16'0 0.0
2014-Sep-24 20:31N 57°04' E 012°16'0 0.0
2014-Sep-24 19:31N 57°04' E 012°16'0 0.0
2014-Sep-24 18:25N 57°04' E 012°16'0 0.0
2014-Sep-24 16:13N 57°04' E 012°16'0 0.0
2014-Sep-24 15:32N 57°04' E 012°16'0 0.0
2014-Sep-24 14:31N 57°04' E 012°16'0 0.0
2014-Sep-24 13:20N 57°04' E 012°16'0 0.0
2014-Sep-24 11:08N 57°04' E 012°16'0 0.0
2014-Sep-24 10:26N 57°04' E 012°16'0 0.0
2014-Sep-24 09:32N 57°04' E 012°16'0 0.0
2014-Sep-24 08:32N 57°04' E 012°16'0 0.0
2014-Sep-24 07:14N 57°04' E 012°16'0 0.0
2014-Sep-24 06:26N 57°04' E 012°16'0 0.0
2014-Sep-24 05:32N 57°04' E 012°16'0 0.0
2014-Sep-24 04:32N 57°04' E 012°16'0 0.0
2014-Sep-24 03:20N 57°04' E 012°16'0 0.0
2014-Sep-24 02:20N 57°04' E 012°16'0 0.0
2014-Sep-24 01:32N 57°04' E 012°16'0 0.0
2014-Sep-24 00:14N 57°04' E 012°16'0 0.0
2014-Sep-23 23:26N 57°04' E 012°16'0 0.0
2014-Sep-23 22:26N 57°04' E 012°16'0 0.0
2014-Sep-23 21:32N 57°04' E 012°16'0 0.0
2014-Sep-23 20:32N 57°04' E 012°16'0 0.0
2014-Sep-23 19:20N 57°04' E 012°16'1 0.7
2014-Sep-23 18:33N 57°03' E 012°15'9 8.9
2014-Sep-23 17:33N 56°54' E 012°16'12 3.0
2014-Sep-23 13:33N 56°43' E 012°18'3 2.6
2014-Sep-23 12:33N 56°40' E 012°20'1 0.3
2014-Sep-23 07:28N 56°39' E 012°18'2 2.6
2014-Sep-23 06:33N 56°41' E 012°17'3 2.6
2014-Sep-23 05:33N 56°44' E 012°16'3 2.7
2014-Sep-23 04:32N 56°46' E 012°15'3 3.0
2014-Sep-23 03:33N 56°49' E 012°14'8 7.7
2014-Sep-23 02:29N 56°58' E 012°14'6 5.1
2014-Sep-23 01:18N 57°04' E 012°16'0 0.0
2014-Sep-23 00:24N 57°04' E 012°16'0 0.0
2014-Sep-22 23:18N 57°04' E 012°16'0 0.0
2014-Sep-22 22:30N 57°04' E 012°16'0 0.0
2014-Sep-22 21:21N 57°04' E 012°16'0 0.0
2014-Sep-22 20:24N 57°04' E 012°16'0 0.0
2014-Sep-22 19:18N 57°04' E 012°16'0 0.0
2014-Sep-22 18:30N 57°04' E 012°16'0 0.0
2014-Sep-22 17:30N 57°04' E 012°16'0 0.0
2014-Sep-22 16:24N 57°04' E 012°16'0 0.0
2014-Sep-22 15:18N 57°04' E 012°16'0 0.0
2014-Sep-22 14:18N 57°04' E 012°16'0 0.0
2014-Sep-22 13:06N 57°04' E 012°16'0 0.0
2014-Sep-22 12:12N 57°04' E 012°16'0 0.0
2014-Sep-22 11:30N 57°04' E 012°16'0 0.0
2014-Sep-22 10:18N 57°04' E 012°16'0 0.0
2014-Sep-22 09:30N 57°04' E 012°16'0 0.0
2014-Sep-22 08:30N 57°04' E 012°16'0 0.0
2014-Sep-22 07:06N 57°04' E 012°16'0 0.0
2014-Sep-22 06:30N 57°04' E 012°16'  
Track history (hours):
 
Tides and Currents Weather Stations Pressure Air Temp Water Temp Dewpoint Dewpoint Depression Visibility Wind Speed Wind Dir Waves Ship Positions

Vg 117 Kungsvik

Last reported at 2014-Oct-02 05:33 UTC. Time now 2014-Oct-02 06:21 UTC.
Position N 56°52' E 012°16'.

Length 17 m.

Type: Fishing. MMSI: 266137000.

Date/timePositionNaut miles runAvg speedWind from/ knotsBaromVisibWave heightAir tempDewpointWater temp
2014-Oct-02 05:33N 56°52' E 012°16'3 2.5
2014-Oct-02 04:32N 56°55' E 012°15'4 3.7
2014-Oct-02 03:33N 56°58' E 012°14'5 0.5
2014-Oct-01 17:32N 57°03' E 012°15'8 7.9
2014-Oct-01 16:33N 56°55' E 012°15'3 2.6
2014-Oct-01 15:31N 56°52' E 012°15'2 2.6
2014-Oct-01 14:33N 56°50' E 012°17'3 2.6
2014-Oct-01 13:33N 56°48' E 012°18'3 2.6
2014-Oct-01 12:33N 56°45' E 012°19'1 1.0
2014-Oct-01 11:33N 56°46' E 012°18'3 2.6
2014-Oct-01 10:33N 56°48' E 012°17'0 0.2
2014-Oct-01 09:23N 56°49' E 012°17'2 2.6
2014-Oct-01 08:33N 56°47' E 012°18'1 0.6
2014-Oct-01 07:33N 56°46' E 012°17'3 2.6
2014-Oct-01 06:33N 56°49' E 012°17'2 2.5
2014-Oct-01 05:33N 56°51' E 012°16'2 2.4
2014-Oct-01 04:33N 56°54' E 012°15'4 4.5
2014-Oct-01 03:33N 56°58' E 012°15'5 0.5
2014-Sep-30 17:33N 57°03' E 012°15'8 8.1
2014-Sep-30 16:31N 56°54' E 012°15'2 2.3
2014-Sep-30 15:33N 56°52' E 012°15'3 2.6
2014-Sep-30 14:33N 56°50' E 012°17'3 2.6
2014-Sep-30 13:33N 56°47' E 012°17'3 2.7
2014-Sep-30 12:33N 56°44' E 012°18'1 1.1
2014-Sep-30 11:33N 56°44' E 012°19'3 2.7
2014-Sep-30 10:32N 56°47' E 012°18'1 1.2
2014-Sep-30 09:32N 56°48' E 012°17'3 2.6
2014-Sep-30 08:33N 56°45' E 012°19'1 1.1
2014-Sep-30 07:33N 56°45' E 012°17'3 2.6
2014-Sep-30 06:28N 56°48' E 012°16'2 2.6
2014-Sep-30 05:33N 56°50' E 012°16'3 2.6
2014-Sep-30 04:33N 56°53' E 012°15'6 5.6
2014-Sep-30 03:32N 56°58' E 012°14'6 5.1
2014-Sep-30 02:27N 57°04' E 012°16'0 0.0
2014-Sep-30 01:15N 57°04' E 012°16'0 0.0
2014-Sep-30 00:33N 57°04' E 012°16'0 0.0
2014-Sep-29 23:15N 57°04' E 012°16'0 0.0
2014-Sep-29 22:33N 57°04' E 012°16'0 0.0
2014-Sep-29 21:27N 57°04' E 012°16'0 0.0
2014-Sep-29 19:21N 57°04' E 012°16'0 0.0
2014-Sep-29 18:09N 57°04' E 012°16'3 4.5
2014-Sep-29 17:29N 57°01' E 012°14'8 8.1
2014-Sep-29 16:33N 56°53' E 012°10'1 0.8
2014-Sep-29 15:34N 56°53' E 012°11'2 2.0
2014-Sep-29 14:34N 56°52' E 012°14'3 2.5
2014-Sep-29 13:33N 56°50' E 012°15'3 2.6
2014-Sep-29 12:33N 56°47' E 012°13'2 2.0
2014-Sep-29 11:32N 56°45' E 012°14'2 2.5
2014-Sep-29 10:33N 56°48' E 012°15'1 1.1
2014-Sep-29 09:33N 56°49' E 012°15'2 2.4
2014-Sep-29 08:31N 56°47' E 012°17'2 2.3
2014-Sep-29 07:33N 56°44' E 012°17'3 2.5
2014-Sep-29 06:33N 56°47' E 012°16'3 2.6
2014-Sep-29 05:32N 56°49' E 012°16'3 2.6
2014-Sep-29 04:33N 56°52' E 012°15'6 6.3
2014-Sep-29 03:33N 56°58' E 012°14'5 5.2
2014-Sep-29 02:31N 57°04' E 012°16'0 0.0
2014-Sep-29 01:31N 57°04' E 012°16'0 0.0
2014-Sep-29 00:25N 57°04' E 012°16'0 0.0
2014-Sep-28 23:31N 57°04' E 012°16'0 0.0
2014-Sep-28 22:25N 57°04' E 012°16'0 0.0
2014-Sep-28 21:31N 57°04' E 012°16'0 0.0
2014-Sep-28 20:31N 57°04' E 012°16'0 0.0
2014-Sep-28 19:19N 57°04' E 012°16'0 0.0
2014-Sep-28 18:19N 57°04' E 012°16'0 0.0
2014-Sep-28 17:19N 57°04' E 012°16'0 0.0
2014-Sep-28 16:31N 57°04' E 012°16'0 0.0
2014-Sep-28 15:31N 57°04' E 012°16'0 0.0
2014-Sep-28 14:31N 57°04' E 012°16'0 0.0
2014-Sep-28 13:25N 57°04' E 012°16'0 0.0
2014-Sep-28 12:25N 57°04' E 012°16'0 0.0
2014-Sep-28 11:19N 57°04' E 012°16'0 0.0
2014-Sep-28 10:31N 57°04' E 012°16'0 0.0
2014-Sep-28 08:07N 57°04' E 012°16'0 0.0
2014-Sep-28 07:31N 57°04' E 012°16'0 0.0
2014-Sep-28 05:31N 57°04' E 012°16'0 0.0
2014-Sep-28 04:13N 57°04' E 012°16'0 0.0
2014-Sep-28 03:31N 57°04' E 012°16'0 0.0
2014-Sep-28 02:25N 57°04' E 012°16'0 0.0
2014-Sep-28 01:25N 57°04' E 012°16'0 0.0
2014-Sep-28 00:31N 57°04' E 012°16'0 0.0
2014-Sep-27 23:13N 57°04' E 012°16'0 0.0
2014-Sep-27 22:31N 57°04' E 012°16'0 0.0
2014-Sep-27 13:31N 57°04' E 012°16'0 0.0
2014-Sep-27 12:25N 57°04' E 012°16'0 0.0
2014-Sep-27 11:31N 57°04' E 012°16'0 0.0
2014-Sep-27 10:31N 57°04' E 012°16'0 0.0
2014-Sep-27 09:31N 57°04' E 012°16'0 0.0
2014-Sep-27 07:13N 57°04' E 012°16'0 0.0
2014-Sep-27 06:31N 57°04' E 012°16'0 0.0
2014-Sep-27 05:31N 57°04' E 012°16'0 0.0
2014-Sep-27 04:31N 57°04' E 012°16'0 0.0
2014-Sep-27 03:25N 57°04' E 012°16'0 0.0
2014-Sep-27 02:31N 57°04' E 012°16'0 0.0
2014-Sep-27 01:31N 57°04' E 012°16'0 0.0
2014-Sep-27 00:31N 57°04' E 012°16'0 0.0
2014-Sep-26 23:13N 57°04' E 012°16'0 0.0
2014-Sep-26 22:31N 57°04' E 012°16'0 0.0
2014-Sep-26 21:07N 57°04' E 012°16'0 0.0
2014-Sep-26 20:25N 57°04' E 012°16'0 0.0
2014-Sep-26 19:25N 57°04' E 012°16'0 0.0
2014-Sep-26 18:31N 57°04' E 012°16'0 0.0
2014-Sep-26 17:07N 57°04' E 012°16'0 0.0
2014-Sep-26 15:31N 57°04' E 012°16'0 0.0
2014-Sep-26 14:19N 57°04' E 012°16'0 0.0
2014-Sep-26 13:31N 57°04' E 012°16'0 0.0
2014-Sep-26 12:31N 57°04' E 012°16'0 0.0
2014-Sep-26 10:25N 57°04' E 012°16'0 0.0
2014-Sep-26 09:19N 57°04' E 012°16'0 0.0
2014-Sep-26 08:19N 57°04' E 012°16'0 0.0
2014-Sep-26 07:31N 57°04' E 012°16'0 0.0
2014-Sep-26 06:31N 57°04' E 012°16'0 0.0
2014-Sep-26 05:31N 57°04' E 012°16'0 0.0
2014-Sep-26 04:31N 57°04' E 012°16'0 0.0
2014-Sep-26 03:31N 57°04' E 012°16'0 0.0
2014-Sep-26 01:25N 57°04' E 012°16'0 0.0
2014-Sep-26 00:31N 57°04' E 012°16'0 0.0
2014-Sep-25 23:19N 57°04' E 012°16'0 0.0
2014-Sep-25 22:25N 57°04' E 012°16'0 0.0
2014-Sep-25 21:19N 57°04' E 012°16'0 0.0
2014-Sep-25 20:31N 57°04' E 012°16'0 0.0
2014-Sep-25 18:31N 57°04' E 012°16'0 0.0
2014-Sep-25 17:19N 57°04' E 012°16'0 0.0
2014-Sep-25 16:31N 57°04' E 012°16'0 0.0
2014-Sep-25 15:31N 57°04' E 012°16'0 0.0
2014-Sep-25 14:13N 57°04' E 012°16'0 0.0
2014-Sep-25 13:19N 57°04' E 012°16'0 0.0
2014-Sep-25 12:31N 57°04' E 012°16'0 0.0
2014-Sep-25 11:25N 57°04' E 012°16'0 0.0
2014-Sep-25 10:31N 57°04' E 012°16'0 0.0
2014-Sep-25 09:25N 57°04' E 012°16'0 0.0
2014-Sep-25 08:31N 57°04' E 012°16'0 0.0
2014-Sep-25 07:19N 57°04' E 012°16'0 0.0
2014-Sep-25 06:31N 57°04' E 012°16'0 0.0
2014-Sep-25 05:31N 57°04' E 012°16'0 0.0
2014-Sep-25 04:25N 57°04' E 012°16'0 0.0
2014-Sep-25 03:31N 57°04' E 012°16'0 0.0
2014-Sep-25 02:31N 57°04' E 012°16'0 0.0
2014-Sep-25 01:19N 57°04' E 012°16'0 0.0
2014-Sep-25 00:31N 57°04' E 012°16'0 0.0
2014-Sep-24 23:31N 57°04' E 012°16'0 0.0
2014-Sep-24 22:25N 57°04' E 012°16'0 0.0
2014-Sep-24 21:31N 57°04' E 012°16'0 0.0
2014-Sep-24 20:31N 57°04' E 012°16'0 0.0
2014-Sep-24 19:31N 57°04' E 012°16'0 0.0
2014-Sep-24 18:25N 57°04' E 012°16'0 0.0
2014-Sep-24 16:13N 57°04' E 012°16'0 0.0
2014-Sep-24 15:32N 57°04' E 012°16'0 0.0
2014-Sep-24 14:31N 57°04' E 012°16'0 0.0
2014-Sep-24 13:20N 57°04' E 012°16'0 0.0
2014-Sep-24 11:08N 57°04' E 012°16'0 0.0
2014-Sep-24 10:26N 57°04' E 012°16'0 0.0
2014-Sep-24 09:32N 57°04' E 012°16'0 0.0
2014-Sep-24 08:32N 57°04' E 012°16'0 0.0
2014-Sep-24 07:14N 57°04' E 012°16'0 0.0
2014-Sep-24 06:26N 57°04' E 012°16'0 0.0
2014-Sep-24 05:32N 57°04' E 012°16'0 0.0
2014-Sep-24 04:32N 57°04' E 012°16'0 0.0
2014-Sep-24 03:20N 57°04' E 012°16'0 0.0
2014-Sep-24 02:20N 57°04' E 012°16'0 0.0
2014-Sep-24 01:32N 57°04' E 012°16'0 0.0
2014-Sep-24 00:14N 57°04' E 012°16'0 0.0
2014-Sep-23 23:26N 57°04' E 012°16'0 0.0
2014-Sep-23 22:26N 57°04' E 012°16'0 0.0
2014-Sep-23 21:32N 57°04' E 012°16'0 0.0
2014-Sep-23 20:32N 57°04' E 012°16'0 0.0
2014-Sep-23 19:20N 57°04' E 012°16'1 0.7
2014-Sep-23 18:33N 57°03' E 012°15'9 8.9
2014-Sep-23 17:33N 56°54' E 012°16'12 3.0
2014-Sep-23 13:33N 56°43' E 012°18'3 2.6
2014-Sep-23 12:33N 56°40' E 012°20'1 0.3
2014-Sep-23 07:28N 56°39' E 012°18'2 2.6
2014-Sep-23 06:33N 56°41' E 012°17'3 2.6
2014-Sep-23 05:33N 56°44' E 012°16'3 2.7
2014-Sep-23 04:32N 56°46' E 012°15'3 3.0
2014-Sep-23 03:33N 56°49' E 012°14'8 7.7
2014-Sep-23 02:29N 56°58' E 012°14'6 5.1
2014-Sep-23 01:18N 57°04' E 012°16'0 0.0
2014-Sep-23 00:24N 57°04' E 012°16'0 0.0
2014-Sep-22 23:18N 57°04' E 012°16'0 0.0
2014-Sep-22 22:30N 57°04' E 012°16'0 0.0
2014-Sep-22 21:21N 57°04' E 012°16'0 0.0
2014-Sep-22 20:24N 57°04' E 012°16'0 0.0
2014-Sep-22 19:18N 57°04' E 012°16'0 0.0
2014-Sep-22 18:30N 57°04' E 012°16'0 0.0
2014-Sep-22 17:30N 57°04' E 012°16'0 0.0
2014-Sep-22 16:24N 57°04' E 012°16'0 0.0
2014-Sep-22 15:18N 57°04' E 012°16'0 0.0
2014-Sep-22 14:18N 57°04' E 012°16'0 0.0
2014-Sep-22 13:06N 57°04' E 012°16'0 0.0
2014-Sep-22 12:12N 57°04' E 012°16'0 0.0
2014-Sep-22 11:30N 57°04' E 012°16'0 0.0
2014-Sep-22 10:18N 57°04' E 012°16'0 0.0
2014-Sep-22 09:30N 57°04' E 012°16'0 0.0
2014-Sep-22 08:30N 57°04' E 012°16'0 0.0
2014-Sep-22 07:06N 57°04' E 012°16'0 0.0
2014-Sep-22 06:30N 57°04' E 012°16'  

Dump ship's entire track history